sensor_id;sensor_type;location;lat;lon;timestamp;temperature;humidity
14604;DHT22;7388;51.078;13.740;2022-12-19T00:02:04;-0.10;40.00
14604;DHT22;7388;51.078;13.740;2022-12-19T00:04:31;0.00;40.00
14604;DHT22;7388;51.078;13.740;2022-12-19T00:06:57;0.10;39.70
14604;DHT22;7388;51.078;13.740;2022-12-19T00:09:26;0.10;39.80
14604;DHT22;7388;51.078;13.740;2022-12-19T00:11:52;0.00;39.70
14604;DHT22;7388;51.078;13.740;2022-12-19T00:14:18;-0.10;40.00
14604;DHT22;7388;51.078;13.740;2022-12-19T00:16:45;-0.10;40.20
14604;DHT22;7388;51.078;13.740;2022-12-19T00:19:11;0.00;39.60
14604;DHT22;7388;51.078;13.740;2022-12-19T00:21:37;0.00;39.40
14604;DHT22;7388;51.078;13.740;2022-12-19T00:24:04;0.00;39.60
14604;DHT22;7388;51.078;13.740;2022-12-19T00:26:32;-0.10;39.80
14604;DHT22;7388;51.078;13.740;2022-12-19T00:29:03;-0.10;39.90
14604;DHT22;7388;51.078;13.740;2022-12-19T00:31:31;-0.10;40.20
14604;DHT22;7388;51.078;13.740;2022-12-19T00:33:58;-0.10;39.50
14604;DHT22;7388;51.078;13.740;2022-12-19T00:36:26;-0.20;39.40
14604;DHT22;7388;51.078;13.740;2022-12-19T00:38:54;-0.20;39.30
14604;DHT22;7388;51.078;13.740;2022-12-19T00:41:31;-0.30;39.50
14604;DHT22;7388;51.078;13.740;2022-12-19T00:44:05;-0.20;39.40
14604;DHT22;7388;51.078;13.740;2022-12-19T00:46:33;-0.30;39.60
14604;DHT22;7388;51.078;13.740;2022-12-19T00:48:59;-0.30;39.20
14604;DHT22;7388;51.078;13.740;2022-12-19T00:51:27;-0.30;39.30
14604;DHT22;7388;51.078;13.740;2022-12-19T00:53:54;-0.20;39.00
14604;DHT22;7388;51.078;13.740;2022-12-19T00:56:25;-0.20;38.90
14604;DHT22;7388;51.078;13.740;2022-12-19T00:58:51;-0.30;38.90
14604;DHT22;7388;51.078;13.740;2022-12-19T01:01:20;-0.40;38.80
14604;DHT22;7388;51.078;13.740;2022-12-19T01:03:47;-0.40;39.40
14604;DHT22;7388;51.078;13.740;2022-12-19T01:06:13;-0.50;39.30
14604;DHT22;7388;51.078;13.740;2022-12-19T01:08:39;-0.50;39.20
14604;DHT22;7388;51.078;13.740;2022-12-19T01:11:05;-0.50;39.10
14604;DHT22;7388;51.078;13.740;2022-12-19T01:13:36;-0.50;39.00
14604;DHT22;7388;51.078;13.740;2022-12-19T01:16:10;-0.50;39.00
14604;DHT22;7388;51.078;13.740;2022-12-19T01:18:36;-0.60;38.80
14604;DHT22;7388;51.078;13.740;2022-12-19T01:21:05;-0.40;38.90
14604;DHT22;7388;51.078;13.740;2022-12-19T01:23:31;-0.60;38.90
14604;DHT22;7388;51.078;13.740;2022-12-19T01:25:57;-0.60;38.80
14604;DHT22;7388;51.078;13.740;2022-12-19T01:28:23;-0.50;39.00
14604;DHT22;7388;51.078;13.740;2022-12-19T01:30:49;-0.60;38.80
14604;DHT22;7388;51.078;13.740;2022-12-19T01:33:16;-0.60;39.40
14604;DHT22;7388;51.078;13.740;2022-12-19T01:35:43;-0.50;38.80
14604;DHT22;7388;51.078;13.740;2022-12-19T01:38:13;-0.60;38.50
14604;DHT22;7388;51.078;13.740;2022-12-19T01:40:39;-0.50;38.40
14604;DHT22;7388;51.078;13.740;2022-12-19T01:43:08;-0.50;38.30
14604;DHT22;7388;51.078;13.740;2022-12-19T01:45:36;-0.40;38.10
14604;DHT22;7388;51.078;13.740;2022-12-19T01:48:19;-0.40;38.10
14604;DHT22;7388;51.078;13.740;2022-12-19T01:53:15;-0.50;38.10
14604;DHT22;7388;51.078;13.740;2022-12-19T01:55:42;-0.50;38.40
14604;DHT22;7388;51.078;13.740;2022-12-19T01:58:10;-0.50;38.30
14604;DHT22;7388;51.078;13.740;2022-12-19T02:00:38;-0.40;37.90
14604;DHT22;7388;51.078;13.740;2022-12-19T02:03:25;-0.40;38.10
14604;DHT22;7388;51.078;13.740;2022-12-19T02:05:52;-0.50;38.10
14604;DHT22;7388;51.078;13.740;2022-12-19T02:08:18;-0.50;38.20
14604;DHT22;7388;51.078;13.740;2022-12-19T02:10:44;-0.50;38.10
14604;DHT22;7388;51.078;13.740;2022-12-19T02:13:10;-0.40;37.80
14604;DHT22;7388;51.078;13.740;2022-12-19T02:24:13;-0.50;38.20
14604;DHT22;7388;51.078;13.740;2022-12-19T02:27:02;-0.40;38.10
14604;DHT22;7388;51.078;13.740;2022-12-19T02:38:01;-0.50;38.30
14604;DHT22;7388;51.078;13.740;2022-12-19T02:40:38;-0.50;38.40
14604;DHT22;7388;51.078;13.740;2022-12-19T02:43:05;-0.50;38.50
14604;DHT22;7388;51.078;13.740;2022-12-19T02:45:36;-0.50;38.60
14604;DHT22;7388;51.078;13.740;2022-12-19T02:48:03;-0.60;38.60
14604;DHT22;7388;51.078;13.740;2022-12-19T02:50:42;-0.50;38.60
14604;DHT22;7388;51.078;13.740;2022-12-19T02:53:09;-0.50;38.70
14604;DHT22;7388;51.078;13.740;2022-12-19T03:07:15;-0.30;39.10
14604;DHT22;7388;51.078;13.740;2022-12-19T03:12:52;-0.20;38.90
14604;DHT22;7388;51.078;13.740;2022-12-19T03:15:20;-0.20;38.90
14604;DHT22;7388;51.078;13.740;2022-12-19T03:17:47;-0.20;38.90
14604;DHT22;7388;51.078;13.740;2022-12-19T03:23:11;-0.20;38.90
14604;DHT22;7388;51.078;13.740;2022-12-19T03:25:37;-0.20;39.20
14604;DHT22;7388;51.078;13.740;2022-12-19T03:28:18;-0.10;39.40
14604;DHT22;7388;51.078;13.740;2022-12-19T03:30:45;0.00;39.20
14604;DHT22;7388;51.078;13.740;2022-12-19T03:33:12;0.00;39.00
14604;DHT22;7388;51.078;13.740;2022-12-19T03:35:40;0.00;39.20
14604;DHT22;7388;51.078;13.740;2022-12-19T03:38:08;0.00;39.10
14604;DHT22;7388;51.078;13.740;2022-12-19T03:40:34;0.00;39.30
14604;DHT22;7388;51.078;13.740;2022-12-19T03:43:04;0.00;39.40
14604;DHT22;7388;51.078;13.740;2022-12-19T03:45:54;0.00;39.40
14604;DHT22;7388;51.078;13.740;2022-12-19T03:51:08;0.10;39.60
14604;DHT22;7388;51.078;13.740;2022-12-19T03:56:32;0.20;39.50
14604;DHT22;7388;51.078;13.740;2022-12-19T03:59:38;0.30;39.50
14604;DHT22;7388;51.078;13.740;2022-12-19T04:02:06;0.20;39.40
14604;DHT22;7388;51.078;13.740;2022-12-19T04:04:36;0.30;39.60
14604;DHT22;7388;51.078;13.740;2022-12-19T04:07:04;1.80;39.80
14604;DHT22;7388;51.078;13.740;2022-12-19T04:09:31;0.50;39.40
14604;DHT22;7388;51.078;13.740;2022-12-19T04:12:01;0.50;39.30
14604;DHT22;7388;51.078;13.740;2022-12-19T04:14:37;0.60;39.30
14604;DHT22;7388;51.078;13.740;2022-12-19T04:20:11;0.60;39.30
14604;DHT22;7388;51.078;13.740;2022-12-19T04:22:57;0.50;39.30
14604;DHT22;7388;51.078;13.740;2022-12-19T04:25:37;0.50;39.60
14604;DHT22;7388;51.078;13.740;2022-12-19T04:28:11;0.60;39.40
14604;DHT22;7388;51.078;13.740;2022-12-19T04:30:39;0.50;39.60
14604;DHT22;7388;51.078;13.740;2022-12-19T04:33:05;0.60;39.70
14604;DHT22;7388;51.078;13.740;2022-12-19T04:35:31;0.60;39.80
14604;DHT22;7388;51.078;13.740;2022-12-19T04:37:58;0.70;39.70
14604;DHT22;7388;51.078;13.740;2022-12-19T04:40:23;0.60;39.80
14604;DHT22;7388;51.078;13.740;2022-12-19T04:42:49;0.60;39.90
14604;DHT22;7388;51.078;13.740;2022-12-19T04:45:15;0.70;40.00
14604;DHT22;7388;51.078;13.740;2022-12-19T04:47:41;0.60;40.00
14604;DHT22;7388;51.078;13.740;2022-12-19T04:50:08;0.70;40.10
14604;DHT22;7388;51.078;13.740;2022-12-19T04:52:34;0.70;39.90
14604;DHT22;7388;51.078;13.740;2022-12-19T04:55:00;0.70;39.90
14604;DHT22;7388;51.078;13.740;2022-12-19T04:57:28;0.80;40.00
14604;DHT22;7388;51.078;13.740;2022-12-19T04:59:54;0.80;39.80
14604;DHT22;7388;51.078;13.740;2022-12-19T05:02:20;0.80;39.80
14604;DHT22;7388;51.078;13.740;2022-12-19T05:04:46;0.80;39.90
14604;DHT22;7388;51.078;13.740;2022-12-19T05:07:13;0.90;39.90
14604;DHT22;7388;51.078;13.740;2022-12-19T05:09:38;0.90;39.90
14604;DHT22;7388;51.078;13.740;2022-12-19T05:12:05;0.90;40.00
14604;DHT22;7388;51.078;13.740;2022-12-19T05:14:31;1.00;39.80
14604;DHT22;7388;51.078;13.740;2022-12-19T05:16:57;1.10;39.60
14604;DHT22;7388;51.078;13.740;2022-12-19T05:19:23;1.00;39.50
14604;DHT22;7388;51.078;13.740;2022-12-19T05:21:49;1.00;39.80
14604;DHT22;7388;51.078;13.740;2022-12-19T05:24:15;1.00;39.80
14604;DHT22;7388;51.078;13.740;2022-12-19T05:26:40;1.00;39.70
14604;DHT22;7388;51.078;13.740;2022-12-19T05:29:07;1.00;39.90
14604;DHT22;7388;51.078;13.740;2022-12-19T05:31:33;1.00;39.80
14604;DHT22;7388;51.078;13.740;2022-12-19T05:33:58;1.00;39.80
14604;DHT22;7388;51.078;13.740;2022-12-19T05:36:24;1.00;39.70
14604;DHT22;7388;51.078;13.740;2022-12-19T05:38:50;1.00;39.80
14604;DHT22;7388;51.078;13.740;2022-12-19T05:41:18;1.00;39.90
14604;DHT22;7388;51.078;13.740;2022-12-19T05:43:48;1.00;40.00
14604;DHT22;7388;51.078;13.740;2022-12-19T05:46:14;0.90;40.20
14604;DHT22;7388;51.078;13.740;2022-12-19T05:48:40;0.90;40.30
14604;DHT22;7388;51.078;13.740;2022-12-19T05:51:06;1.00;40.20
14604;DHT22;7388;51.078;13.740;2022-12-19T05:53:34;1.00;40.30
14604;DHT22;7388;51.078;13.740;2022-12-19T05:56:09;1.00;40.20
14604;DHT22;7388;51.078;13.740;2022-12-19T05:58:35;1.00;40.10
14604;DHT22;7388;51.078;13.740;2022-12-19T06:01:07;1.10;40.10
14604;DHT22;7388;51.078;13.740;2022-12-19T06:03:33;1.20;40.00
14604;DHT22;7388;51.078;13.740;2022-12-19T06:06:03;1.10;40.10
14604;DHT22;7388;51.078;13.740;2022-12-19T06:08:30;1.20;40.10
14604;DHT22;7388;51.078;13.740;2022-12-19T06:11:01;1.20;40.20
14604;DHT22;7388;51.078;13.740;2022-12-19T06:13:28;1.10;40.60
14604;DHT22;7388;51.078;13.740;2022-12-19T06:16:04;1.00;40.80
14604;DHT22;7388;51.078;13.740;2022-12-19T06:18:30;1.00;40.80
14604;DHT22;7388;51.078;13.740;2022-12-19T06:20:57;1.10;40.60
14604;DHT22;7388;51.078;13.740;2022-12-19T06:23:23;1.20;40.40
14604;DHT22;7388;51.078;13.740;2022-12-19T06:25:49;1.20;40.60
14604;DHT22;7388;51.078;13.740;2022-12-19T06:28:14;1.20;40.60
14604;DHT22;7388;51.078;13.740;2022-12-19T06:30:40;1.20;40.80
14604;DHT22;7388;51.078;13.740;2022-12-19T06:33:06;1.20;40.70
14604;DHT22;7388;51.078;13.740;2022-12-19T06:35:32;1.20;40.60
14604;DHT22;7388;51.078;13.740;2022-12-19T06:37:57;1.30;40.70
14604;DHT22;7388;51.078;13.740;2022-12-19T06:40:23;1.30;40.50
14604;DHT22;7388;51.078;13.740;2022-12-19T06:43:07;1.30;40.60
14604;DHT22;7388;51.078;13.740;2022-12-19T06:45:33;1.40;40.60
14604;DHT22;7388;51.078;13.740;2022-12-19T06:47:59;1.40;40.60
14604;DHT22;7388;51.078;13.740;2022-12-19T06:50:24;1.50;40.50
14604;DHT22;7388;51.078;13.740;2022-12-19T06:52:50;1.40;40.10
14604;DHT22;7388;51.078;13.740;2022-12-19T06:55:16;1.40;40.50
14604;DHT22;7388;51.078;13.740;2022-12-19T06:57:41;1.50;40.40
14604;DHT22;7388;51.078;13.740;2022-12-19T07:00:12;1.40;40.60
14604;DHT22;7388;51.078;13.740;2022-12-19T07:02:39;1.50;40.40
14604;DHT22;7388;51.078;13.740;2022-12-19T07:05:07;1.50;40.30
14604;DHT22;7388;51.078;13.740;2022-12-19T07:07:34;1.40;40.40
14604;DHT22;7388;51.078;13.740;2022-12-19T07:10:00;1.50;40.40
14604;DHT22;7388;51.078;13.740;2022-12-19T07:12:26;1.40;40.60
14604;DHT22;7388;51.078;13.740;2022-12-19T07:14:51;1.50;40.60
14604;DHT22;7388;51.078;13.740;2022-12-19T07:17:18;1.50;40.60
14604;DHT22;7388;51.078;13.740;2022-12-19T07:19:44;1.50;40.70
14604;DHT22;7388;51.078;13.740;2022-12-19T07:22:10;1.60;40.50
14604;DHT22;7388;51.078;13.740;2022-12-19T07:24:36;1.60;40.50
14604;DHT22;7388;51.078;13.740;2022-12-19T07:27:02;1.60;40.40
14604;DHT22;7388;51.078;13.740;2022-12-19T07:29:28;1.60;40.60
14604;DHT22;7388;51.078;13.740;2022-12-19T07:31:54;2.10;40.80
14604;DHT22;7388;51.078;13.740;2022-12-19T07:34:20;1.70;40.40
14604;DHT22;7388;51.078;13.740;2022-12-19T07:36:45;1.70;41.20
14604;DHT22;7388;51.078;13.740;2022-12-19T07:39:11;1.70;40.30
14604;DHT22;7388;51.078;13.740;2022-12-19T07:41:37;1.70;40.50
14604;DHT22;7388;51.078;13.740;2022-12-19T07:44:04;1.60;40.70
14604;DHT22;7388;51.078;13.740;2022-12-19T07:46:30;1.60;40.70
14604;DHT22;7388;51.078;13.740;2022-12-19T07:48:55;1.60;40.60
14604;DHT22;7388;51.078;13.740;2022-12-19T07:51:21;1.70;40.60
14604;DHT22;7388;51.078;13.740;2022-12-19T07:53:47;1.70;40.20
14604;DHT22;7388;51.078;13.740;2022-12-19T07:56:13;1.80;40.20
14604;DHT22;7388;51.078;13.740;2022-12-19T07:58:40;1.80;40.10
14604;DHT22;7388;51.078;13.740;2022-12-19T08:01:05;1.90;40.30
14604;DHT22;7388;51.078;13.740;2022-12-19T08:03:32;1.90;40.20
14604;DHT22;7388;51.078;13.740;2022-12-19T08:06:02;1.80;40.00
14604;DHT22;7388;51.078;13.740;2022-12-19T08:08:29;2.00;40.20
14604;DHT22;7388;51.078;13.740;2022-12-19T08:10:55;2.10;39.70
14604;DHT22;7388;51.078;13.740;2022-12-19T08:13:21;2.10;39.60
14604;DHT22;7388;51.078;13.740;2022-12-19T08:15:47;2.20;39.40
14604;DHT22;7388;51.078;13.740;2022-12-19T08:18:13;2.10;40.10
14604;DHT22;7388;51.078;13.740;2022-12-19T08:20:42;2.10;39.60
14604;DHT22;7388;51.078;13.740;2022-12-19T08:23:07;2.20;39.40
14604;DHT22;7388;51.078;13.740;2022-12-19T08:25:34;2.30;39.20
14604;DHT22;7388;51.078;13.740;2022-12-19T08:27:59;2.30;39.50
14604;DHT22;7388;51.078;13.740;2022-12-19T08:30:25;2.30;39.30
14604;DHT22;7388;51.078;13.740;2022-12-19T08:32:51;2.30;39.00
14604;DHT22;7388;51.078;13.740;2022-12-19T08:35:16;2.30;39.10
14604;DHT22;7388;51.078;13.740;2022-12-19T08:37:42;2.30;39.20
14604;DHT22;7388;51.078;13.740;2022-12-19T08:40:08;2.30;39.20
14604;DHT22;7388;51.078;13.740;2022-12-19T08:42:34;2.30;39.60
14604;DHT22;7388;51.078;13.740;2022-12-19T08:45:00;2.30;39.50
14604;DHT22;7388;51.078;13.740;2022-12-19T08:47:25;2.30;39.40
14604;DHT22;7388;51.078;13.740;2022-12-19T08:49:51;2.40;39.60
14604;DHT22;7388;51.078;13.740;2022-12-19T08:52:17;2.40;39.60
14604;DHT22;7388;51.078;13.740;2022-12-19T08:54:43;2.50;39.30
14604;DHT22;7388;51.078;13.740;2022-12-19T08:57:09;2.50;39.10
14604;DHT22;7388;51.078;13.740;2022-12-19T08:59:35;2.40;39.40
14604;DHT22;7388;51.078;13.740;2022-12-19T09:02:01;2.60;39.60
14604;DHT22;7388;51.078;13.740;2022-12-19T09:04:27;2.60;39.00
14604;DHT22;7388;51.078;13.740;2022-12-19T09:06:52;2.60;39.20
14604;DHT22;7388;51.078;13.740;2022-12-19T09:09:18;2.70;39.40
14604;DHT22;7388;51.078;13.740;2022-12-19T09:11:44;2.80;39.00
14604;DHT22;7388;51.078;13.740;2022-12-19T09:14:10;2.90;39.20
14604;DHT22;7388;51.078;13.740;2022-12-19T09:16:35;3.00;38.80
14604;DHT22;7388;51.078;13.740;2022-12-19T09:19:01;3.10;38.80
14604;DHT22;7388;51.078;13.740;2022-12-19T09:21:28;3.10;38.60
14604;DHT22;7388;51.078;13.740;2022-12-19T09:23:56;3.10;38.50
14604;DHT22;7388;51.078;13.740;2022-12-19T09:26:23;3.10;39.00
14604;DHT22;7388;51.078;13.740;2022-12-19T09:28:49;3.10;38.70
14604;DHT22;7388;51.078;13.740;2022-12-19T09:31:23;3.10;38.90
14604;DHT22;7388;51.078;13.740;2022-12-19T09:33:50;3.20;38.90
14604;DHT22;7388;51.078;13.740;2022-12-19T09:36:21;3.20;38.70
14604;DHT22;7388;51.078;13.740;2022-12-19T09:38:48;3.20;38.80
14604;DHT22;7388;51.078;13.740;2022-12-19T09:44:36;3.20;38.80
14604;DHT22;7388;51.078;13.740;2022-12-19T09:47:18;3.10;38.90
14604;DHT22;7388;51.078;13.740;2022-12-19T09:49:46;3.10;39.00
14604;DHT22;7388;51.078;13.740;2022-12-19T10:00:36;3.30;39.20
14604;DHT22;7388;51.078;13.740;2022-12-19T10:03:33;3.40;39.40
14604;DHT22;7388;51.078;13.740;2022-12-19T10:06:16;3.50;39.20
14604;DHT22;7388;51.078;13.740;2022-12-19T10:08:43;3.20;39.30
14604;DHT22;7388;51.078;13.740;2022-12-19T10:19:00;3.60;39.30
14604;DHT22;7388;51.078;13.740;2022-12-19T10:27:00;3.80;38.50
14604;DHT22;7388;51.078;13.740;2022-12-19T10:30:09;3.80;38.90
14604;DHT22;7388;51.078;13.740;2022-12-19T10:35:14;4.00;38.60
14604;DHT22;7388;51.078;13.740;2022-12-19T10:38:46;4.30;38.10
14604;DHT22;7388;51.078;13.740;2022-12-19T10:46:08;5.10;36.20
14604;DHT22;7388;51.078;13.740;2022-12-19T10:48:35;4.90;36.30
14604;DHT22;7388;51.078;13.740;2022-12-19T10:51:01;5.00;36.40
14604;DHT22;7388;51.078;13.740;2022-12-19T10:53:28;5.10;36.70
14604;DHT22;7388;51.078;13.740;2022-12-19T10:56:00;5.20;36.30
14604;DHT22;7388;51.078;13.740;2022-12-19T11:08:34;5.20;36.30
14604;DHT22;7388;51.078;13.740;2022-12-19T11:13:46;5.00;36.10
14604;DHT22;7388;51.078;13.740;2022-12-19T11:16:20;4.90;36.60
14604;DHT22;7388;51.078;13.740;2022-12-19T11:18:47;4.90;36.70
14604;DHT22;7388;51.078;13.740;2022-12-19T11:21:26;4.90;36.80
14604;DHT22;7388;51.078;13.740;2022-12-19T11:24:04;4.90;36.70
14604;DHT22;7388;51.078;13.740;2022-12-19T11:26:49;4.90;37.00
14604;DHT22;7388;51.078;13.740;2022-12-19T11:29:37;4.90;36.90
14604;DHT22;7388;51.078;13.740;2022-12-19T11:32:26;5.00;37.10
14604;DHT22;7388;51.078;13.740;2022-12-19T11:35:03;4.90;36.80
14604;DHT22;7388;51.078;13.740;2022-12-19T11:37:54;5.00;36.90
14604;DHT22;7388;51.078;13.740;2022-12-19T11:40:45;4.90;36.80
14604;DHT22;7388;51.078;13.740;2022-12-19T11:43:23;4.80;36.70
14604;DHT22;7388;51.078;13.740;2022-12-19T11:46:06;4.80;37.20
14604;DHT22;7388;51.078;13.740;2022-12-19T11:48:45;4.80;37.40
14604;DHT22;7388;51.078;13.740;2022-12-19T11:54:16;4.70;37.50
14604;DHT22;7388;51.078;13.740;2022-12-19T11:56:45;4.70;37.90
14604;DHT22;7388;51.078;13.740;2022-12-19T11:59:31;4.80;37.70
14604;DHT22;7388;51.078;13.740;2022-12-19T12:02:01;4.70;37.80
14604;DHT22;7388;51.078;13.740;2022-12-19T12:07:03;4.60;38.10
14604;DHT22;7388;51.078;13.740;2022-12-19T12:12:24;4.40;38.60
14604;DHT22;7388;51.078;13.740;2022-12-19T12:18:11;4.30;38.90
14604;DHT22;7388;51.078;13.740;2022-12-19T12:20:57;4.30;38.70
14604;DHT22;7388;51.078;13.740;2022-12-19T12:28:59;4.20;39.10
14604;DHT22;7388;51.078;13.740;2022-12-19T12:31:38;4.20;39.00
14604;DHT22;7388;51.078;13.740;2022-12-19T12:34:49;4.30;39.40
14604;DHT22;7388;51.078;13.740;2022-12-19T12:37:43;4.20;39.00
14604;DHT22;7388;51.078;13.740;2022-12-19T12:42:52;4.20;39.40
14604;DHT22;7388;51.078;13.740;2022-12-19T12:45:37;4.30;39.20
14604;DHT22;7388;51.078;13.740;2022-12-19T12:50:40;4.30;39.40
14604;DHT22;7388;51.078;13.740;2022-12-19T12:53:09;4.30;39.00
14604;DHT22;7388;51.078;13.740;2022-12-19T12:55:38;4.20;38.80
14604;DHT22;7388;51.078;13.740;2022-12-19T13:06:42;4.40;39.50
14604;DHT22;7388;51.078;13.740;2022-12-19T13:09:28;4.60;39.50
14604;DHT22;7388;51.078;13.740;2022-12-19T13:23:00;4.20;41.30
14604;DHT22;7388;51.078;13.740;2022-12-19T13:30:22;4.10;42.10
14604;DHT22;7388;51.078;13.740;2022-12-19T13:37:48;4.10;42.70
14604;DHT22;7388;51.078;13.740;2022-12-19T13:40:27;4.10;43.10
14604;DHT22;7388;51.078;13.740;2022-12-19T13:43:00;4.10;43.40
14604;DHT22;7388;51.078;13.740;2022-12-19T13:45:54;4.10;43.40
14604;DHT22;7388;51.078;13.740;2022-12-19T13:48:32;4.00;43.70
14604;DHT22;7388;51.078;13.740;2022-12-19T13:51:02;4.00;44.00
14604;DHT22;7388;51.078;13.740;2022-12-19T13:53:29;4.00;44.20
14604;DHT22;7388;51.078;13.740;2022-12-19T13:56:08;4.00;44.00
14604;DHT22;7388;51.078;13.740;2022-12-19T14:01:28;4.00;44.70
14604;DHT22;7388;51.078;13.740;2022-12-19T14:03:57;3.90;44.70
14604;DHT22;7388;51.078;13.740;2022-12-19T14:06:27;4.00;44.90
14604;DHT22;7388;51.078;13.740;2022-12-19T14:09:05;3.90;45.00
14604;DHT22;7388;51.078;13.740;2022-12-19T14:11:39;4.00;45.20
14604;DHT22;7388;51.078;13.740;2022-12-19T14:14:13;3.90;45.50
14604;DHT22;7388;51.078;13.740;2022-12-19T14:17:06;3.90;45.90
14604;DHT22;7388;51.078;13.740;2022-12-19T14:19:38;3.90;46.00
14604;DHT22;7388;51.078;13.740;2022-12-19T14:27:26;3.90;46.20
14604;DHT22;7388;51.078;13.740;2022-12-19T14:29:55;4.00;46.40
14604;DHT22;7388;51.078;13.740;2022-12-19T14:32:23;4.00;46.10
14604;DHT22;7388;51.078;13.740;2022-12-19T14:34:49;3.90;46.60
14604;DHT22;7388;51.078;13.740;2022-12-19T14:37:32;3.90;46.90
14604;DHT22;7388;51.078;13.740;2022-12-19T14:40:25;4.00;47.50
14604;DHT22;7388;51.078;13.740;2022-12-19T14:43:19;3.90;46.80
14604;DHT22;7388;51.078;13.740;2022-12-19T14:48:53;3.90;47.20
14604;DHT22;7388;51.078;13.740;2022-12-19T14:51:36;3.90;47.70
14604;DHT22;7388;51.078;13.740;2022-12-19T14:56:33;3.80;47.80
14604;DHT22;7388;51.078;13.740;2022-12-19T14:59:27;3.90;47.90
14604;DHT22;7388;51.078;13.740;2022-12-19T15:02:25;3.90;47.80
14604;DHT22;7388;51.078;13.740;2022-12-19T15:05:15;4.00;47.80
14604;DHT22;7388;51.078;13.740;2022-12-19T15:07:49;4.00;47.70
14604;DHT22;7388;51.078;13.740;2022-12-19T15:10:15;4.10;47.80
14604;DHT22;7388;51.078;13.740;2022-12-19T15:13:20;4.10;47.90
14604;DHT22;7388;51.078;13.740;2022-12-19T15:18:25;4.00;48.20
14604;DHT22;7388;51.078;13.740;2022-12-19T15:20:55;4.00;48.10
14604;DHT22;7388;51.078;13.740;2022-12-19T15:23:21;4.10;48.20
14604;DHT22;7388;51.078;13.740;2022-12-19T15:25:48;4.10;48.20
14604;DHT22;7388;51.078;13.740;2022-12-19T15:28:25;4.20;47.90
14604;DHT22;7388;51.078;13.740;2022-12-19T15:30:58;4.20;47.90
14604;DHT22;7388;51.078;13.740;2022-12-19T15:33:26;4.20;48.10
14604;DHT22;7388;51.078;13.740;2022-12-19T15:35:52;4.20;48.10
14604;DHT22;7388;51.078;13.740;2022-12-19T15:38:18;4.30;48.00
14604;DHT22;7388;51.078;13.740;2022-12-19T15:40:43;4.20;48.10
14604;DHT22;7388;51.078;13.740;2022-12-19T15:43:21;4.20;48.40
14604;DHT22;7388;51.078;13.740;2022-12-19T15:45:50;4.20;48.30
14604;DHT22;7388;51.078;13.740;2022-12-19T15:48:16;4.20;48.70
14604;DHT22;7388;51.078;13.740;2022-12-19T15:50:43;4.10;48.50
14604;DHT22;7388;51.078;13.740;2022-12-19T15:53:19;4.20;48.50
14604;DHT22;7388;51.078;13.740;2022-12-19T15:55:45;4.20;48.50
14604;DHT22;7388;51.078;13.740;2022-12-19T15:58:12;4.30;48.40
14604;DHT22;7388;51.078;13.740;2022-12-19T16:00:43;4.30;48.10
14604;DHT22;7388;51.078;13.740;2022-12-19T16:03:13;4.30;48.40
14604;DHT22;7388;51.078;13.740;2022-12-19T16:05:38;4.40;48.00
14604;DHT22;7388;51.078;13.740;2022-12-19T16:08:18;4.30;48.30
14604;DHT22;7388;51.078;13.740;2022-12-19T16:10:48;4.20;48.30
14604;DHT22;7388;51.078;13.740;2022-12-19T16:13:24;4.20;48.40
14604;DHT22;7388;51.078;13.740;2022-12-19T16:15:51;4.20;48.60
14604;DHT22;7388;51.078;13.740;2022-12-19T16:18:18;4.30;48.50
14604;DHT22;7388;51.078;13.740;2022-12-19T16:20:45;4.20;48.70
14604;DHT22;7388;51.078;13.740;2022-12-19T16:23:11;4.20;49.00
14604;DHT22;7388;51.078;13.740;2022-12-19T16:25:42;4.30;49.00
14604;DHT22;7388;51.078;13.740;2022-12-19T16:28:19;4.30;48.70
14604;DHT22;7388;51.078;13.740;2022-12-19T16:30:45;4.40;48.50
14604;DHT22;7388;51.078;13.740;2022-12-19T16:33:20;4.40;48.30
14604;DHT22;7388;51.078;13.740;2022-12-19T16:35:47;4.40;48.50
14604;DHT22;7388;51.078;13.740;2022-12-19T16:38:14;4.40;48.60
14604;DHT22;7388;51.078;13.740;2022-12-19T16:40:40;4.40;48.80
14604;DHT22;7388;51.078;13.740;2022-12-19T16:43:30;4.40;48.40
14604;DHT22;7388;51.078;13.740;2022-12-19T16:45:57;4.40;48.40
14604;DHT22;7388;51.078;13.740;2022-12-19T16:48:25;4.40;48.60
14604;DHT22;7388;51.078;13.740;2022-12-19T16:50:52;4.40;48.70
14604;DHT22;7388;51.078;13.740;2022-12-19T16:53:18;4.50;48.60
14604;DHT22;7388;51.078;13.740;2022-12-19T16:55:45;4.40;48.70
14604;DHT22;7388;51.078;13.740;2022-12-19T16:58:19;4.40;49.40
14604;DHT22;7388;51.078;13.740;2022-12-19T17:00:45;4.50;48.60
14604;DHT22;7388;51.078;13.740;2022-12-19T17:03:31;4.50;48.40
14604;DHT22;7388;51.078;13.740;2022-12-19T17:05:59;4.50;48.40
14604;DHT22;7388;51.078;13.740;2022-12-19T17:08:25;4.40;48.60
14604;DHT22;7388;51.078;13.740;2022-12-19T17:10:52;4.50;48.80
14604;DHT22;7388;51.078;13.740;2022-12-19T17:13:18;4.50;48.60
14604;DHT22;7388;51.078;13.740;2022-12-19T17:15:45;4.60;48.90
14604;DHT22;7388;51.078;13.740;2022-12-19T17:18:15;4.60;48.90
14604;DHT22;7388;51.078;13.740;2022-12-19T17:20:42;4.60;48.90
14604;DHT22;7388;51.078;13.740;2022-12-19T17:23:14;4.50;48.90
14604;DHT22;7388;51.078;13.740;2022-12-19T17:25:40;4.40;49.00
14604;DHT22;7388;51.078;13.740;2022-12-19T17:28:06;4.50;48.90
14604;DHT22;7388;51.078;13.740;2022-12-19T17:30:34;4.50;49.10
14604;DHT22;7388;51.078;13.740;2022-12-19T17:33:00;4.50;48.90
14604;DHT22;7388;51.078;13.740;2022-12-19T17:35:29;4.60;48.70
14604;DHT22;7388;51.078;13.740;2022-12-19T17:37:56;4.60;48.70
14604;DHT22;7388;51.078;13.740;2022-12-19T17:40:28;4.70;48.70
14604;DHT22;7388;51.078;13.740;2022-12-19T17:42:54;4.70;48.40
14604;DHT22;7388;51.078;13.740;2022-12-19T17:45:25;4.70;48.30
14604;DHT22;7388;51.078;13.740;2022-12-19T17:47:51;4.70;48.40
14604;DHT22;7388;51.078;13.740;2022-12-19T17:50:26;4.80;48.10
14604;DHT22;7388;51.078;13.740;2022-12-19T17:52:53;4.80;47.90
14604;DHT22;7388;51.078;13.740;2022-12-19T17:55:27;4.80;48.20
14604;DHT22;7388;51.078;13.740;2022-12-19T17:57:54;4.70;48.30
14604;DHT22;7388;51.078;13.740;2022-12-19T18:00:22;4.70;48.30
14604;DHT22;7388;51.078;13.740;2022-12-19T18:02:49;4.80;48.30
14604;DHT22;7388;51.078;13.740;2022-12-19T18:05:19;4.70;48.30
14604;DHT22;7388;51.078;13.740;2022-12-19T18:07:50;4.70;48.40
14604;DHT22;7388;51.078;13.740;2022-12-19T18:10:25;4.80;48.40
14604;DHT22;7388;51.078;13.740;2022-12-19T18:12:52;4.80;48.30
14604;DHT22;7388;51.078;13.740;2022-12-19T18:15:18;4.90;48.20
14604;DHT22;7388;51.078;13.740;2022-12-19T18:17:45;4.90;48.20
14604;DHT22;7388;51.078;13.740;2022-12-19T18:22:44;4.90;48.20
14604;DHT22;7388;51.078;13.740;2022-12-19T18:25:22;4.90;48.10
14604;DHT22;7388;51.078;13.740;2022-12-19T18:27:48;4.90;48.10
14604;DHT22;7388;51.078;13.740;2022-12-19T18:30:14;4.80;48.20
14604;DHT22;7388;51.078;13.740;2022-12-19T18:32:56;4.80;48.40
14604;DHT22;7388;51.078;13.740;2022-12-19T18:35:38;4.80;48.50
14604;DHT22;7388;51.078;13.740;2022-12-19T18:38:11;4.80;48.70
14604;DHT22;7388;51.078;13.740;2022-12-19T18:40:37;4.80;48.70
14604;DHT22;7388;51.078;13.740;2022-12-19T18:43:03;4.90;48.50
14604;DHT22;7388;51.078;13.740;2022-12-19T18:45:36;4.90;48.60